createdAt,value
2018-05-24T00:01:47.418Z,16.90
2018-05-24T00:04:14.726Z,17.00
2018-05-24T00:06:41.225Z,16.90
2018-05-24T00:09:08.049Z,17.00
2018-05-24T00:11:34.426Z,16.90
2018-05-24T00:14:00.917Z,16.70
2018-05-24T00:16:27.326Z,16.60
2018-05-24T00:18:53.729Z,16.70
2018-05-24T00:21:20.124Z,16.60
2018-05-24T00:23:46.526Z,16.30
2018-05-24T00:26:13.717Z,16.60
2018-05-24T00:28:40.071Z,16.50
2018-05-24T00:31:06.563Z,16.60
2018-05-24T00:33:33.015Z,16.60
2018-05-24T00:35:59.743Z,16.60
2018-05-24T00:38:26.301Z,16.70
2018-05-24T00:40:52.672Z,16.60
2018-05-24T00:43:19.343Z,16.60
2018-05-24T00:45:45.770Z,16.60
2018-05-24T00:48:12.275Z,16.60
2018-05-24T00:50:38.777Z,16.50
2018-05-24T00:53:05.373Z,16.50
2018-05-24T00:55:39.824Z,16.50
2018-05-24T00:58:06.262Z,16.50
2018-05-24T01:00:32.656Z,16.50
2018-05-24T01:02:59.065Z,16.60
2018-05-24T01:05:25.462Z,16.50
2018-05-24T01:07:51.862Z,16.50
2018-05-24T01:10:19.097Z,16.60
2018-05-24T01:12:46.325Z,16.70
2018-05-24T01:15:12.812Z,16.60
2018-05-24T01:17:39.216Z,16.60
2018-05-24T01:20:06.373Z,16.70
2018-05-24T01:22:33.506Z,16.60
2018-05-24T01:24:59.931Z,16.50
2018-05-24T01:27:26.331Z,16.60
2018-05-24T01:29:52.762Z,16.40
2018-05-24T01:32:19.187Z,16.30
2018-05-24T01:34:45.563Z,16.60
2018-05-24T01:37:30.563Z,16.50
2018-05-24T01:39:56.973Z,16.40
2018-05-24T01:42:24.117Z,16.20
2018-05-24T01:44:51.339Z,16.20
2018-05-24T01:47:17.735Z,16.10
2018-05-24T01:49:44.176Z,15.70
2018-05-24T01:52:10.677Z,16.00
2018-05-24T01:54:37.815Z,16.10
2018-05-24T01:57:05.312Z,16.10
2018-05-24T01:59:31.673Z,15.80
2018-05-24T02:01:58.063Z,16.00
2018-05-24T02:04:24.449Z,16.00
2018-05-24T02:06:50.895Z,16.00
2018-05-24T02:09:17.268Z,15.70
2018-05-24T02:11:43.657Z,16.00
2018-05-24T02:14:10.985Z,15.90
2018-05-24T02:16:37.416Z,15.90
2018-05-24T02:19:03.864Z,15.90
2018-05-24T02:21:30.273Z,16.00
2018-05-24T02:23:58.362Z,16.00
2018-05-24T02:26:26.285Z,16.10
2018-05-24T02:28:54.415Z,16.10
2018-05-24T02:31:20.967Z,16.20
2018-05-24T02:33:47.463Z,16.10
2018-05-24T02:36:13.855Z,16.10
2018-05-24T02:38:40.242Z,15.90
2018-05-24T02:41:07.031Z,16.00
2018-05-24T02:43:33.671Z,16.00
2018-05-24T02:46:00.410Z,15.80
2018-05-24T02:48:26.847Z,15.80
2018-05-24T02:50:53.225Z,15.70
2018-05-24T02:53:19.920Z,15.60
2018-05-24T02:55:46.320Z,15.50
2018-05-24T02:58:13.486Z,15.40
2018-05-24T03:00:40.612Z,15.40
2018-05-24T03:03:07.044Z,15.00
2018-05-24T03:05:33.423Z,15.10
2018-05-24T03:07:59.913Z,15.50
2018-05-24T03:10:27.415Z,15.60
2018-05-24T03:12:53.795Z,15.60
2018-05-24T03:15:20.307Z,15.60
2018-05-24T03:17:47.116Z,15.60
2018-05-24T03:20:13.537Z,15.60
2018-05-24T03:22:40.655Z,15.70
2018-05-24T03:25:14.014Z,15.60
2018-05-24T03:27:40.414Z,15.60
2018-05-24T03:30:06.846Z,15.50
2018-05-24T03:32:33.984Z,15.50
2018-05-24T03:35:01.161Z,15.50
2018-05-24T03:37:27.579Z,15.40
2018-05-24T03:39:53.947Z,15.20
2018-05-24T03:42:20.322Z,15.50
2018-05-24T03:44:46.783Z,15.40
2018-05-24T03:47:13.199Z,15.60
2018-05-24T03:49:40.669Z,15.50
2018-05-24T03:52:07.165Z,15.50
2018-05-24T03:54:33.545Z,15.50
2018-05-24T03:57:00.025Z,15.50
2018-05-24T04:03:01.778Z,15.50
2018-05-24T04:05:28.143Z,15.40
2018-05-24T04:07:54.542Z,15.30
2018-05-24T04:10:21.018Z,15.20
2018-05-24T04:12:47.684Z,15.20
2018-05-24T04:15:14.870Z,15.10
2018-05-24T04:17:41.520Z,15.10
2018-05-24T04:20:07.910Z,15.20
2018-05-24T04:22:34.649Z,15.20
2018-05-24T04:25:01.052Z,15.20
2018-05-24T04:27:27.426Z,15.20
2018-05-24T04:29:53.948Z,15.20
2018-05-24T04:32:20.396Z,15.10
2018-05-24T04:34:46.784Z,15.10
2018-05-24T04:37:13.977Z,15.30
2018-05-24T04:39:40.379Z,15.20
2018-05-24T04:42:07.622Z,15.20
2018-05-24T04:44:34.223Z,15.20
2018-05-24T04:47:00.645Z,15.20
2018-05-24T04:49:27.123Z,14.90
2018-05-24T04:51:54.511Z,15.30
2018-05-24T04:54:20.885Z,15.30
2018-05-24T04:56:47.305Z,15.30
2018-05-24T04:59:13.678Z,15.30
2018-05-24T05:01:40.169Z,15.30
2018-05-24T05:04:07.321Z,15.30
2018-05-24T05:06:33.765Z,15.30
2018-05-24T05:09:00.150Z,15.30
2018-05-24T05:11:27.248Z,15.30
2018-05-24T05:13:53.753Z,15.30
2018-05-24T05:16:20.231Z,15.40
2018-05-24T05:18:46.664Z,15.40
2018-05-24T05:21:13.114Z,15.40
2018-05-24T05:23:40.491Z,15.60
2018-05-24T05:26:06.927Z,15.60
2018-05-24T05:28:33.333Z,15.70
2018-05-24T05:31:00.461Z,15.70
2018-05-24T05:33:26.888Z,15.70
2018-05-24T05:35:53.280Z,15.70
2018-05-24T05:38:19.753Z,15.90
2018-05-24T05:40:46.337Z,16.00
2018-05-24T05:43:12.747Z,16.20
2018-05-24T05:45:39.149Z,16.30
2018-05-24T05:48:05.840Z,16.40
2018-05-24T05:50:32.977Z,16.50
2018-05-24T05:53:00.206Z,16.50
2018-05-24T05:55:26.614Z,16.50
2018-05-24T05:57:53.099Z,16.50
2018-05-24T06:00:20.292Z,16.60
2018-05-24T06:02:46.700Z,16.60
2018-05-24T06:05:13.090Z,16.50
2018-05-24T06:07:39.474Z,16.50
2018-05-24T06:10:06.205Z,16.60
2018-05-24T06:12:32.839Z,16.70
2018-05-24T06:14:59.440Z,16.90
2018-05-24T06:17:25.989Z,17.00
2018-05-24T06:19:52.913Z,17.00
2018-05-24T06:22:19.385Z,17.20
2018-05-24T06:24:46.496Z,17.60
2018-05-24T06:27:13.121Z,17.60
2018-05-24T06:29:39.500Z,17.70
2018-05-24T06:32:06.799Z,17.90
2018-05-24T06:34:33.934Z,18.00
2018-05-24T06:37:00.325Z,18.00
2018-05-24T06:39:28.109Z,18.00
2018-05-24T06:41:54.510Z,18.00
2018-05-24T06:44:21.993Z,18.40
2018-05-24T06:46:48.531Z,18.30
2018-05-24T06:49:15.629Z,18.50
2018-05-24T06:51:42.014Z,18.50
2018-05-24T06:54:08.651Z,18.40
2018-05-24T06:56:36.866Z,18.50
2018-05-24T06:59:03.243Z,18.40
2018-05-24T07:01:30.414Z,18.30
2018-05-24T07:03:56.834Z,18.30
2018-05-24T07:06:23.243Z,18.20
2018-05-24T07:08:50.430Z,18.30
2018-05-24T07:11:16.865Z,18.30
2018-05-24T07:13:43.217Z,18.30
2018-05-24T07:16:10.025Z,18.40
2018-05-24T07:18:37.412Z,18.70
2018-05-24T07:21:03.832Z,18.70
2018-05-24T07:23:31.422Z,19.00
2018-05-24T07:26:00.776Z,19.00
2018-05-24T07:28:27.985Z,19.00
2018-05-24T07:30:54.385Z,19.00
2018-05-24T07:33:20.878Z,19.20
2018-05-24T07:35:48.241Z,19.40
2018-05-24T07:38:17.770Z,19.40
2018-05-24T07:40:44.211Z,19.20
2018-05-24T07:43:10.593Z,19.50
2018-05-24T07:45:37.462Z,19.70
2018-05-24T07:48:05.489Z,20.10
2018-05-24T07:50:32.022Z,20.10
2018-05-24T07:52:59.941Z,20.60
2018-05-24T07:55:26.526Z,20.50
2018-05-24T07:57:53.676Z,20.80
2018-05-24T08:00:20.083Z,20.80
2018-05-24T08:02:46.485Z,21.10
2018-05-24T08:05:13.594Z,21.60
2018-05-24T08:07:40.170Z,21.60
2018-05-24T08:10:07.695Z,21.80
2018-05-24T08:12:35.087Z,21.90
2018-05-24T08:15:01.612Z,21.70
2018-05-24T08:17:28.750Z,22.10
2018-05-24T08:19:55.185Z,22.10
2018-05-24T08:22:22.967Z,22.30
2018-05-24T08:24:49.306Z,22.30
2018-05-24T08:27:15.777Z,22.20
2018-05-24T08:29:42.249Z,22.20
2018-05-24T08:32:08.604Z,22.20
2018-05-24T08:34:35.177Z,21.90
2018-05-24T08:37:01.611Z,21.50
2018-05-24T08:39:28.040Z,21.70
2018-05-24T08:41:54.681Z,21.90
2018-05-24T08:44:21.085Z,21.90
2018-05-24T08:46:47.913Z,22.00
2018-05-24T08:49:14.894Z,22.00
2018-05-24T08:51:41.302Z,21.90
2018-05-24T08:54:17.034Z,21.80
2018-05-24T08:56:43.765Z,21.90
2018-05-24T08:59:10.922Z,22.10
2018-05-24T09:01:38.249Z,21.90
2018-05-24T09:04:06.242Z,21.80
2018-05-24T09:06:33.590Z,21.80
2018-05-24T09:09:00.902Z,22.00
2018-05-24T09:11:27.276Z,22.00
2018-05-24T09:13:54.526Z,22.00
2018-05-24T09:16:21.681Z,21.90
2018-05-24T09:18:48.801Z,22.00
2018-05-24T09:21:15.521Z,22.00
2018-05-24T09:23:42.840Z,21.90
2018-05-24T09:26:09.302Z,21.90
2018-05-24T09:28:35.896Z,22.00
2018-05-24T09:31:03.067Z,22.30
2018-05-24T09:33:29.490Z,22.40
2018-05-24T09:35:56.768Z,23.00
2018-05-24T09:38:23.162Z,22.90
2018-05-24T09:40:50.314Z,23.20
2018-05-24T09:43:17.847Z,23.10
2018-05-24T09:45:44.381Z,23.10
2018-05-24T09:48:10.841Z,21.40
2018-05-24T09:50:38.119Z,23.30
2018-05-24T09:53:04.569Z,23.30
2018-05-24T09:55:31.035Z,23.40
2018-05-24T09:57:57.496Z,23.30
2018-05-24T10:00:24.630Z,23.40
2018-05-24T10:02:51.273Z,23.40
2018-05-24T10:05:17.767Z,23.50
2018-05-24T10:07:44.666Z,23.60
2018-05-24T10:10:11.412Z,23.50
2018-05-24T10:12:38.001Z,23.50
2018-05-24T10:15:04.625Z,23.70
2018-05-24T10:17:31.266Z,23.70
2018-05-24T10:19:57.686Z,24.00
2018-05-24T10:22:24.274Z,24.10
2018-05-24T10:24:51.590Z,24.30
2018-05-24T10:27:18.072Z,24.20
2018-05-24T10:29:45.439Z,24.70
2018-05-24T10:32:11.947Z,24.70
2018-05-24T10:34:38.485Z,24.70
2018-05-24T10:37:04.899Z,24.90
2018-05-24T10:39:31.420Z,24.90
2018-05-24T10:41:57.884Z,25.30
2018-05-24T10:44:24.272Z,25.60
2018-05-24T10:46:51.340Z,25.70
2018-05-24T10:49:17.726Z,25.70
2018-05-24T10:51:44.098Z,25.50
2018-05-24T10:54:10.559Z,25.40
2018-05-24T10:56:37.936Z,25.00
2018-05-24T10:59:04.415Z,25.00
2018-05-24T11:01:30.892Z,24.90
2018-05-24T11:03:58.565Z,25.20
2018-05-24T11:06:25.853Z,25.30
2018-05-24T11:08:52.339Z,25.30
2018-05-24T11:11:19.571Z,25.50
2018-05-24T11:13:46.029Z,25.50
2018-05-24T11:16:13.222Z,25.40
2018-05-24T11:18:39.667Z,25.40
2018-05-24T11:21:06.050Z,25.30
2018-05-24T11:23:33.202Z,24.90
2018-05-24T11:26:00.445Z,24.80
2018-05-24T11:28:27.616Z,24.80
2018-05-24T11:30:54.267Z,24.70
2018-05-24T11:33:20.661Z,24.80
2018-05-24T11:35:47.077Z,25.20
2018-05-24T11:38:13.493Z,25.30
2018-05-24T11:40:39.909Z,25.50
2018-05-24T11:43:06.643Z,25.60
2018-05-24T11:45:33.091Z,25.80
2018-05-24T11:47:59.472Z,25.80
2018-05-24T11:50:26.671Z,25.70
2018-05-24T11:52:53.079Z,25.60
2018-05-24T11:55:19.483Z,25.20
2018-05-24T11:57:46.622Z,25.10
2018-05-24T12:00:14.148Z,25.10
2018-05-24T12:02:42.984Z,24.90
2018-05-24T12:05:10.224Z,25.30
2018-05-24T12:07:36.747Z,25.30
2018-05-24T12:10:03.225Z,25.40
2018-05-24T12:12:29.623Z,25.00
2018-05-24T12:14:56.217Z,25.20
2018-05-24T12:17:22.602Z,25.00
2018-05-24T12:19:50.009Z,24.30
2018-05-24T12:22:17.187Z,24.20
2018-05-24T12:24:43.935Z,23.30
2018-05-24T12:27:10.274Z,22.80
2018-05-24T12:29:36.704Z,22.40
2018-05-24T12:32:03.194Z,22.20
2018-05-24T12:34:29.863Z,22.20
2018-05-24T12:36:56.423Z,22.40
2018-05-24T12:39:23.563Z,22.80
2018-05-24T12:41:49.974Z,22.80
2018-05-24T12:44:16.433Z,23.30
2018-05-24T12:46:43.541Z,24.10
2018-05-24T12:49:09.997Z,24.10
2018-05-24T12:51:36.407Z,24.40
2018-05-24T12:54:02.913Z,24.50
2018-05-24T12:56:29.921Z,24.50
2018-05-24T12:58:59.308Z,24.90
2018-05-24T13:01:25.728Z,25.40
2018-05-24T13:03:52.118Z,25.90
2018-05-24T13:06:18.514Z,25.80
2018-05-24T13:08:44.910Z,25.90
2018-05-24T13:11:11.352Z,25.80
2018-05-24T13:13:37.747Z,25.60
2018-05-24T13:16:04.948Z,25.00
2018-05-24T13:18:31.336Z,25.00
2018-05-24T13:20:57.840Z,24.90
2018-05-24T13:23:24.972Z,25.10
2018-05-24T13:25:51.400Z,25.10
2018-05-24T13:28:18.114Z,25.20
2018-05-24T13:30:44.676Z,25.70
2018-05-24T13:33:11.082Z,25.10
2018-05-24T13:35:37.487Z,25.00
2018-05-24T13:38:04.036Z,25.30
2018-05-24T13:40:30.502Z,25.20
2018-05-24T13:42:56.899Z,25.80
2018-05-24T13:45:23.306Z,25.70
2018-05-24T13:47:50.718Z,25.80
2018-05-24T13:50:17.111Z,25.80
2018-05-24T13:52:43.561Z,25.70
2018-05-24T13:55:10.112Z,25.70
2018-05-24T13:57:43.512Z,25.20
2018-05-24T14:00:09.985Z,24.90
2018-05-24T14:02:37.088Z,25.40
2018-05-24T14:05:03.633Z,25.40
2018-05-24T14:07:31.185Z,25.50
2018-05-24T14:09:57.536Z,25.90
2018-05-24T14:12:23.916Z,26.20
2018-05-24T14:14:50.381Z,26.10
2018-05-24T14:17:16.813Z,26.20
2018-05-24T14:19:44.610Z,26.60
2018-05-24T14:22:11.207Z,26.60
2018-05-24T14:24:37.625Z,26.10
2018-05-24T14:27:04.057Z,25.60
2018-05-24T14:29:30.508Z,24.90
2018-05-24T14:31:56.887Z,24.50
2018-05-24T14:34:23.307Z,24.10
2018-05-24T14:36:49.752Z,23.90
2018-05-24T14:39:16.408Z,23.70
2018-05-24T14:41:44.360Z,23.20
2018-05-24T14:44:10.830Z,23.20
2018-05-24T14:46:37.200Z,23.10
2018-05-24T14:49:03.715Z,23.00
2018-05-24T14:51:30.173Z,23.10
2018-05-24T14:53:56.665Z,23.10
2018-05-24T14:56:23.370Z,23.00
2018-05-24T14:58:50.591Z,22.60
2018-05-24T15:01:17.055Z,22.70
2018-05-24T15:03:44.167Z,22.60
2018-05-24T15:06:10.582Z,22.40
2018-05-24T15:08:37.058Z,22.60
2018-05-24T15:11:04.204Z,22.60
2018-05-24T15:13:49.968Z,22.60
2018-05-24T15:16:16.657Z,22.60
2018-05-24T15:18:43.775Z,22.60
2018-05-24T15:21:11.029Z,22.60
2018-05-24T15:23:38.174Z,22.60
2018-05-24T15:26:06.169Z,22.50
2018-05-24T15:28:33.302Z,22.60
2018-05-24T15:30:59.768Z,22.50
2018-05-24T15:33:26.467Z,22.70
2018-05-24T15:35:52.873Z,22.70
2018-05-24T15:38:19.382Z,22.70
2018-05-24T15:40:45.830Z,22.60
2018-05-24T15:43:12.252Z,22.70
2018-05-24T15:45:38.647Z,22.60
2018-05-24T15:48:05.114Z,21.00
2018-05-24T15:50:31.606Z,22.30
2018-05-24T15:52:58.006Z,22.20
2018-05-24T15:57:57.514Z,22.10
2018-05-24T16:00:24.030Z,21.90
2018-05-24T16:02:50.549Z,21.80
2018-05-24T16:05:18.542Z,21.70
2018-05-24T16:07:44.942Z,21.60
2018-05-24T16:10:11.350Z,21.70
2018-05-24T16:12:38.521Z,21.80
2018-05-24T16:15:04.946Z,21.80
2018-05-24T16:17:32.120Z,21.70
2018-05-24T16:19:59.334Z,21.60
2018-05-24T16:22:25.780Z,20.10
2018-05-24T16:24:52.173Z,21.50
2018-05-24T16:27:18.627Z,21.50
2018-05-24T16:29:45.078Z,21.40
2018-05-24T16:32:11.600Z,21.40
2018-05-24T16:34:38.042Z,21.00
2018-05-24T16:37:04.509Z,21.30
2018-05-24T16:39:31.680Z,21.30
2018-05-24T16:41:58.108Z,21.30
2018-05-24T16:44:24.555Z,21.30
2018-05-24T16:46:50.962Z,21.20
2018-05-24T16:49:17.387Z,21.10
2018-05-24T16:51:44.556Z,21.10
2018-05-24T16:54:11.013Z,21.10
2018-05-24T16:56:38.579Z,21.20
2018-05-24T16:59:05.069Z,21.30
2018-05-24T17:01:31.817Z,21.50
2018-05-24T17:03:58.287Z,21.60
2018-05-24T17:06:25.046Z,21.60
2018-05-24T17:08:51.436Z,21.50
2018-05-24T17:11:17.904Z,21.40
2018-05-24T17:13:44.348Z,21.40
2018-05-24T17:16:10.769Z,21.30
2018-05-24T17:18:37.153Z,21.30
2018-05-24T17:21:03.546Z,21.20
2018-05-24T17:23:30.047Z,21.50
2018-05-24T17:26:03.444Z,21.50
2018-05-24T17:28:30.923Z,21.30
2018-05-24T17:30:57.710Z,21.20
2018-05-24T17:33:24.863Z,21.40
2018-05-24T17:35:51.327Z,21.20
2018-05-24T17:38:18.899Z,21.30
2018-05-24T17:40:45.404Z,21.30
2018-05-24T17:43:11.807Z,20.80
2018-05-24T17:45:39.496Z,21.00
2018-05-24T17:48:06.901Z,21.00
2018-05-24T17:50:33.338Z,20.80
2018-05-24T17:53:00.481Z,20.80
2018-05-24T17:55:26.890Z,20.80
2018-05-24T17:57:53.758Z,20.20
2018-05-24T18:00:20.220Z,20.50
2018-05-24T18:02:47.435Z,20.40
2018-05-24T18:05:13.840Z,20.40
2018-05-24T18:07:40.230Z,20.30
2018-05-24T18:10:07.439Z,20.30
2018-05-24T18:12:34.092Z,20.20
2018-05-24T18:15:00.515Z,20.20
2018-05-24T18:17:27.205Z,20.10
2018-05-24T18:19:54.358Z,19.90
2018-05-24T18:22:22.246Z,19.90
2018-05-24T18:27:21.755Z,19.70
2018-05-24T18:29:48.259Z,19.40
2018-05-24T18:32:15.519Z,19.40
2018-05-24T18:34:42.879Z,19.30
2018-05-24T18:37:09.531Z,19.20
2018-05-24T18:39:35.936Z,19.30
2018-05-24T18:42:03.204Z,19.40
2018-05-24T18:44:30.365Z,19.30
2018-05-24T18:46:57.822Z,19.30
2018-05-24T18:49:24.283Z,19.30
2018-05-24T18:51:50.684Z,19.20
2018-05-24T18:54:17.837Z,19.10
2018-05-24T18:56:44.246Z,19.10
2018-05-24T18:59:11.524Z,18.90
2018-05-24T19:01:37.932Z,18.90
2018-05-24T19:04:05.056Z,18.80
2018-05-24T19:06:31.470Z,18.80
2018-05-24T19:08:57.916Z,18.80
2018-05-24T19:11:24.363Z,18.70
2018-05-24T19:13:50.855Z,18.70
2018-05-24T19:16:17.378Z,18.60
2018-05-24T19:18:43.840Z,18.60
2018-05-24T19:21:10.343Z,18.60
2018-05-24T19:23:36.752Z,18.50
2018-05-24T19:26:04.164Z,18.40
2018-05-24T19:28:31.425Z,18.40
2018-05-24T19:30:58.163Z,18.40
2018-05-24T19:33:24.602Z,18.40
2018-05-24T19:35:51.274Z,18.30
2018-05-24T19:38:18.437Z,18.20
2018-05-24T19:40:44.826Z,18.20
2018-05-24T19:43:11.372Z,18.10
2018-05-24T19:45:39.002Z,18.00
2018-05-24T19:48:05.525Z,17.80
2018-05-24T19:53:07.192Z,17.80
2018-05-24T19:55:33.759Z,17.70
2018-05-24T19:58:01.093Z,17.70
2018-05-24T20:00:27.530Z,17.70
2018-05-24T20:02:53.990Z,17.70
2018-05-24T20:05:20.460Z,17.80
2018-05-24T20:07:47.683Z,17.80
2018-05-24T20:10:14.352Z,17.70
2018-05-24T20:12:40.826Z,17.60
2018-05-24T20:15:09.610Z,17.70
2018-05-24T20:17:36.196Z,17.70
2018-05-24T20:20:03.444Z,17.70
2018-05-24T20:22:30.480Z,17.60
2018-05-24T20:24:56.927Z,17.50
2018-05-24T20:27:25.077Z,17.50
2018-05-24T20:29:51.511Z,17.50
2018-05-24T20:32:18.031Z,17.40
2018-05-24T20:34:44.471Z,17.30
2018-05-24T20:37:11.091Z,17.20
2018-05-24T20:39:37.522Z,17.10
2018-05-24T20:42:04.020Z,17.00
2018-05-24T20:44:31.406Z,16.90
2018-05-24T20:46:58.004Z,16.80
2018-05-24T20:49:25.264Z,16.80
2018-05-24T20:51:51.975Z,16.80
2018-05-24T20:54:18.394Z,16.80
2018-05-24T20:56:44.813Z,16.70
2018-05-24T20:59:11.246Z,16.80
2018-05-24T21:01:37.792Z,16.70
2018-05-24T21:04:04.206Z,16.70
2018-05-24T21:06:30.746Z,16.70
2018-05-24T21:08:57.256Z,16.70
2018-05-24T21:11:23.772Z,16.50
2018-05-24T21:13:50.979Z,16.70
2018-05-24T21:16:17.373Z,16.70
2018-05-24T21:18:43.890Z,16.70
2018-05-24T21:21:11.101Z,16.60
2018-05-24T21:23:37.776Z,16.60
2018-05-24T21:26:05.018Z,16.60
2018-05-24T21:28:32.281Z,16.60
2018-05-24T21:30:59.457Z,16.50
2018-05-24T21:33:25.854Z,16.50
2018-05-24T21:35:53.065Z,16.50
2018-05-24T21:38:20.505Z,16.50
2018-05-24T21:40:47.005Z,16.40
2018-05-24T21:43:14.226Z,16.40
2018-05-24T21:45:40.674Z,16.40
2018-05-24T21:48:07.839Z,16.30
2018-05-24T21:50:35.297Z,16.30
2018-05-24T21:53:01.672Z,16.30
2018-05-24T21:55:28.383Z,16.30
2018-05-24T21:57:55.013Z,16.30
2018-05-24T22:00:23.460Z,16.30
2018-05-24T22:02:52.204Z,16.30
2018-05-24T22:05:20.358Z,16.00
2018-05-24T22:07:48.389Z,16.30
2018-05-24T22:10:15.837Z,16.30
2018-05-24T22:12:42.626Z,16.30
2018-05-24T22:15:09.058Z,16.20
2018-05-24T22:17:35.490Z,15.70
2018-05-24T22:20:02.062Z,16.20
2018-05-24T22:22:28.566Z,16.20
2018-05-24T22:24:55.193Z,16.20
2018-05-24T22:27:21.673Z,15.90
2018-05-24T22:29:48.340Z,16.10
2018-05-24T22:32:14.804Z,16.00
2018-05-24T22:34:41.266Z,16.00
2018-05-24T22:37:07.738Z,16.00
2018-05-24T22:39:34.951Z,15.90
2018-05-24T22:42:01.672Z,13.90
2018-05-24T22:44:28.062Z,16.10
2018-05-24T22:46:54.461Z,15.80
2018-05-24T22:49:20.921Z,15.80
2018-05-24T22:51:47.503Z,15.80
2018-05-24T22:54:13.899Z,15.80
2018-05-24T22:56:40.328Z,15.80
2018-05-24T22:59:07.771Z,15.80
2018-05-24T23:01:34.473Z,15.80
2018-05-24T23:04:01.332Z,15.80
2018-05-24T23:06:27.844Z,15.80
2018-05-24T23:08:54.246Z,15.50
2018-05-24T23:11:21.365Z,15.80
2018-05-24T23:13:47.749Z,15.80
2018-05-24T23:16:14.397Z,15.70
2018-05-24T23:18:40.820Z,15.50
2018-05-24T23:21:07.395Z,15.70
2018-05-24T23:23:34.107Z,15.60
2018-05-24T23:26:00.944Z,15.60
2018-05-24T23:28:27.349Z,15.50
2018-05-24T23:30:54.503Z,15.40
2018-05-24T23:33:21.633Z,15.30
2018-05-24T23:35:48.030Z,15.30
2018-05-24T23:38:14.520Z,15.30
2018-05-24T23:40:41.682Z,15.30
2018-05-24T23:43:08.106Z,15.20
2018-05-24T23:45:35.327Z,15.30
2018-05-24T23:48:01.808Z,15.30
2018-05-24T23:50:28.408Z,15.30
2018-05-24T23:52:54.833Z,15.30
2018-05-24T23:55:21.517Z,15.30
2018-05-24T23:57:47.901Z,15.30
